Time;durP1;ratioP1;P1;durP2;ratioP2;P2;SDS_P1;SDS_P2;PMS_P1;PMS_P2;Temp;Humidity;BMP_temperature;BMP_pressure;BME280_temperature;BME280_humidity;BME280_pressure;Samples;Min_cycle;Max_cycle;Signal;HPM_P1;HPM_P2
2022/11/07 00:00:40;;;;;;;8.85;1.55;;;;;;;-142.75;100.00;76678.56;5079264;28;20024;-63
2022/11/07 00:03:05;;;;;;;9.18;2.13;;;;;;;-142.75;100.00;76676.59;5078828;28;20027;-63
2022/11/07 00:05:30;;;;;;;8.93;1.77;;;;;;;-142.75;100.00;76662.81;5079892;28;20051;-64
2022/11/07 00:07:56;;;;;;;8.60;1.73;;;;;;;-142.75;100.00;76668.72;5095557;22;20339;-68
2022/11/07 00:10:21;;;;;;;4.95;1.95;;;;;;;-142.75;100.00;76670.69;5099629;28;20504;-67
2022/11/07 00:12:46;;;;;;;3.13;1.40;;;;;;;-142.75;100.00;76674.63;5099127;28;20088;-67
2022/11/07 00:15:11;;;;;;;6.90;1.52;;;;;;;-142.75;100.00;76684.47;5098441;28;20024;-67
2022/11/07 00:17:37;;;;;;;6.10;1.98;;;;;;;-142.75;100.00;76684.47;5098777;28;20023;-67
2022/11/07 00:20:03;;;;;;;4.10;1.42;;;;;;;-142.75;100.00;76690.38;5080305;28;20015;-67
2022/11/07 00:22:28;;;;;;;;;;;;;;;-142.75;100.00;76678.56;5099738;28;20123;-70
2022/11/07 00:24:53;;;;;;;9.90;1.80;;;;;;;-142.75;100.00;76680.53;5098835;28;20010;-68
2022/11/07 00:27:19;;;;;;;4.40;1.85;;;;;;;-142.75;100.00;76686.44;5098149;28;20061;-69
2022/11/07 00:29:44;;;;;;;5.88;1.55;;;;;;;-142.75;100.00;76670.69;5098341;28;20744;-65
2022/11/07 00:32:09;;;;;;;7.15;1.55;;;;;;;-142.75;100.00;76690.38;5098671;28;20081;-68
2022/11/07 00:34:34;;;;;;;7.32;1.73;;;;;;;-142.75;100.00;76676.59;5098934;28;20735;-68
2022/11/07 00:37:01;;;;;;;5.63;1.73;;;;;;;-142.75;100.00;76680.53;5097589;28;20065;-68
2022/11/07 00:39:27;;;;;;;7.95;1.73;;;;;;;-142.75;100.00;76678.56;5098744;28;20023;-67
2022/11/07 00:41:52;;;;;;;11.82;1.95;;;;;;;-142.75;100.00;76684.47;5099271;28;20019;-66
2022/11/07 00:44:17;;;;;;;6.93;1.50;;;;;;;-142.75;100.00;76680.53;5080649;28;20027;-68
2022/11/07 00:46:43;;;;;;;8.60;1.23;;;;;;;-142.75;100.00;76680.53;5098327;28;20042;-65
2022/11/07 00:49:08;;;;;;;5.05;1.80;;;;;;;-142.75;100.00;76682.50;5098579;28;20026;-68
2022/11/07 00:51:33;;;;;;;8.85;1.83;;;;;;;-142.75;100.00;76692.34;5099054;28;20075;-68
2022/11/07 00:54:01;;;;;;;9.55;1.60;;;;;;;-142.75;100.00;76688.41;5080059;28;20073;-66
2022/11/07 00:56:26;;;;;;;7.88;1.35;;;;;;;-142.75;100.00;76684.47;5080517;28;20499;-67
2022/11/07 00:58:56;;;;;;;9.30;1.35;;;;;;;-142.75;100.00;76696.28;5097924;28;20023;-68
2022/11/07 01:01:25;;;;;;;8.13;1.13;;;;;;;-142.75;100.00;76692.34;5098235;28;20562;-67
2022/11/07 01:06:37;;;;;;;4.45;1.30;;;;;;;-142.75;100.00;76698.25;5098303;28;20389;-68
2022/11/07 01:09:08;;;;;;;9.68;1.83;;;;;;;-142.75;100.00;76698.25;5097523;28;20031;-67
2022/11/07 01:11:35;;;;;;;10.02;1.40;;;;;;;-142.75;100.00;76702.19;5098784;28;20058;-67
2022/11/07 01:14:01;;;;;;;12.32;1.63;;;;;;;-142.75;100.00;76704.16;5079681;28;20540;-68
2022/11/07 01:16:28;;;;;;;8.27;1.65;;;;;;;-142.75;100.00;76712.03;5098105;28;20038;-66
2022/11/07 01:18:54;;;;;;;13.98;1.50;;;;;;;-142.75;100.00;76717.94;5097578;28;20110;-67
2022/11/07 01:21:20;;;;;;;5.47;1.48;;;;;;;-142.75;100.00;76715.97;5098399;28;20020;-67
2022/11/07 01:23:46;;;;;;;9.60;1.60;;;;;;;-142.75;100.00;76719.91;5079761;28;20089;-68
2022/11/07 01:26:12;;;;;;;9.38;1.92;;;;;;;-142.75;100.00;76702.19;5097887;28;20023;-69
2022/11/07 01:28:40;;;;;;;8.68;1.52;;;;;;;-142.75;100.00;76715.97;5097315;28;20493;-68
2022/11/07 01:31:10;;;;;;;9.10;1.42;;;;;;;-142.75;100.00;76698.25;5097349;28;20466;-67
2022/11/07 01:33:37;;;;;;;5.07;0.98;;;;;;;-142.75;100.00;76700.22;5098157;28;20030;-68
2022/11/07 01:36:08;;;;;;;10.48;1.90;;;;;;;-142.75;100.00;76714.00;5097402;28;20024;-67
2022/11/07 01:38:35;;;;;;;5.90;1.52;;;;;;;-142.75;100.00;76715.97;5097261;28;20504;-65
2022/11/07 01:43:46;;;;;;;5.95;1.27;;;;;;;-142.75;100.00;76731.72;5098286;28;20872;-68
2022/11/07 01:46:12;;;;;;;7.68;1.73;;;;;;;-142.75;100.00;76739.59;5097459;28;20059;-68
2022/11/07 01:48:41;;;;;;;7.32;1.55;;;;;;;-142.75;100.00;76737.63;5097404;28;20103;-68
2022/11/07 01:51:06;;;;;;;11.85;1.70;;;;;;;-142.75;100.00;76743.53;5097682;28;20030;-67
2022/11/07 01:53:34;;;;;;;11.65;1.92;;;;;;;-142.75;100.00;76747.47;5098036;28;20027;-68
2022/11/07 01:56:00;;;;;;;10.10;1.70;;;;;;;-142.75;100.00;76745.50;5097355;28;20409;-68
2022/11/07 01:58:25;;;;;;;7.63;2.00;;;;;;;-142.75;100.00;76755.34;5097336;28;20020;-65
2022/11/07 02:00:50;;;;;;;9.35;1.73;;;;;;;-142.75;100.00;76755.34;5097374;28;20620;-69
2022/11/07 02:03:19;;;;;;;6.78;1.33;;;;;;;-142.75;100.00;76739.59;5097630;28;20063;-66
2022/11/07 02:05:56;;;;;;;9.82;1.80;;;;;;;-142.75;100.00;76757.31;5097797;28;20023;-67
2022/11/07 02:08:21;;;;;;;;;;;;;;;-142.75;100.00;76735.66;5097027;28;20414;-69
2022/11/07 02:10:47;;;;;;;12.35;1.73;;;;;;;-142.75;100.00;76735.66;5098265;28;20022;-67
2022/11/07 02:13:22;;;;;;;4.55;1.40;;;;;;;-142.75;100.00;76731.72;5097745;28;20059;-67
2022/11/07 02:15:47;;;;;;;11.25;2.03;;;;;;;-142.75;100.00;76735.66;5097301;28;20028;-69
2022/11/07 02:18:12;;;;;;;8.45;2.08;;;;;;;-142.75;100.00;76741.56;5096707;28;20034;-69
2022/11/07 02:20:38;;;;;;;13.15;2.08;;;;;;;-142.75;100.00;76733.69;5098000;28;20026;-67
2022/11/07 02:23:30;;;;;;;6.88;2.28;;;;;;;-142.75;100.00;76741.56;5097105;28;20059;-68
2022/11/07 02:25:55;;;;;;;10.70;1.83;;;;;;;-142.75;100.00;76739.59;5096584;28;20097;-67
2022/11/07 02:28:22;;;;;;;12.93;2.10;;;;;;;-142.75;100.00;76735.66;5096759;28;20422;-68
2022/11/07 02:30:48;;;;;;;6.13;1.80;;;;;;;-142.75;100.00;76729.75;5079199;28;20024;-68
2022/11/07 02:33:19;;;;;;;5.97;1.60;;;;;;;-142.75;100.00;76729.75;5097494;28;20027;-68
2022/11/07 02:35:47;;;;;;;9.30;1.92;;;;;;;-142.75;100.00;76743.53;5097427;28;20138;-67
2022/11/07 02:38:25;;;;;;;7.65;1.95;;;;;;;-142.75;100.00;76727.78;5096498;28;20393;-68
2022/11/07 02:40:57;;;;;;;8.27;2.03;;;;;;;-142.75;100.00;76729.75;5083201;28;20026;-69
2022/11/07 02:43:26;;;;;;;12.55;1.67;;;;;;;-142.75;100.00;76715.97;5100835;28;20032;-69
2022/11/07 02:45:53;;;;;;;7.35;1.90;;;;;;;-142.75;100.00;76721.88;5100790;28;20039;-67
2022/11/07 02:48:19;;;;;;;11.40;1.70;;;;;;;-142.75;100.00;76719.91;5100146;28;20561;-67
2022/11/07 02:50:44;;;;;;;4.90;1.45;;;;;;;-142.75;100.00;76725.81;5100991;28;20032;-68
2022/11/07 02:53:09;;;;;;;10.38;1.90;;;;;;;-142.75;100.00;76723.84;5100652;28;20084;-68
2022/11/07 02:55:35;;;;;;;7.13;1.50;;;;;;;-142.75;100.00;76721.88;5101330;28;20132;-68
2022/11/07 02:58:00;;;;;;;8.25;2.00;;;;;;;-142.75;100.00;76723.84;5099679;28;20389;-68
2022/11/07 03:00:25;;;;;;;8.18;1.92;;;;;;;-142.75;100.00;76719.91;5101050;28;20019;-69
2022/11/07 03:02:51;;;;;;;10.90;1.30;;;;;;;-142.75;100.00;76719.91;5100842;28;20105;-69
2022/11/07 03:05:18;;;;;;;6.57;1.70;;;;;;;-142.75;100.00;76727.78;5100724;28;20059;-68
2022/11/07 03:07:45;;;;;;;9.43;1.98;;;;;;;-142.75;100.00;76721.88;5099653;28;20024;-66
2022/11/07 03:10:10;;;;;;;8.75;1.45;;;;;;;-142.75;100.00;76719.91;5100712;28;20030;-68
2022/11/07 03:12:36;;;;;;;11.98;2.20;;;;;;;-142.75;100.00;76723.84;5100916;28;20036;-69
2022/11/07 03:15:05;;;;;;;17.27;2.08;;;;;;;-142.75;100.00;76719.91;5100300;28;20684;-68
2022/11/07 03:17:31;;;;;;;10.05;1.50;;;;;;;-142.75;100.00;76712.03;5100048;28;20024;-65
2022/11/07 03:19:56;;;;;;;9.13;1.30;;;;;;;-142.75;100.00;76714.00;5099542;28;20047;-67
2022/11/07 03:22:22;;;;;;;11.35;1.98;;;;;;;-142.75;100.00;76712.03;5100015;28;20024;-68
2022/11/07 03:24:47;;;;;;;9.27;1.60;;;;;;;-142.75;100.00;76723.84;5081785;28;20528;-69
2022/11/07 03:27:14;;;;;;;16.80;2.53;;;;;;;-142.75;100.00;76721.88;5098465;28;20490;-65
2022/11/07 03:29:39;;;;;;;6.75;1.95;;;;;;;-142.75;100.00;76717.94;5099360;28;20516;-68
2022/11/07 03:32:05;;;;;;;7.20;1.40;;;;;;;-142.75;100.00;76727.78;5099182;28;20024;-68
2022/11/07 03:34:30;;;;;;;7.63;1.33;;;;;;;-142.75;100.00;76723.84;5099618;28;20026;-68
2022/11/07 03:36:55;;;;;;;20.95;2.08;;;;;;;-142.75;100.00;76715.97;5098717;28;20023;-67
2022/11/07 03:39:21;;;;;;;8.98;1.90;;;;;;;-142.75;100.00;76723.84;5099295;28;20023;-68
2022/11/07 03:41:46;;;;;;;10.60;1.90;;;;;;;-142.75;100.00;76710.06;5099751;28;20055;-67
2022/11/07 03:44:11;;;;;;;;;;;;;;;-142.75;100.00;76700.22;5099498;28;20570;-68
2022/11/07 03:46:36;;;;;;;9.50;1.52;;;;;;;-142.75;100.00;76706.13;5098587;28;19912;-67
2022/11/07 03:49:02;;;;;;;13.63;1.60;;;;;;;-142.75;100.00;76715.97;5098614;28;20060;-68
2022/11/07 03:51:27;;;;;;;14.65;2.03;;;;;;;-142.75;100.00;76719.91;5099270;28;20030;-67
2022/11/07 03:53:52;;;;;;;12.00;2.17;;;;;;;-142.75;100.00;76714.00;5098617;28;20023;-67
2022/11/07 03:56:17;;;;;;;9.40;2.50;;;;;;;-142.75;100.00;76714.00;5098809;28;20416;-68
2022/11/07 03:58:43;;;;;;;9.55;1.85;;;;;;;-142.75;100.00;76708.09;5098456;28;20023;-66
2022/11/07 04:01:10;;;;;;;14.95;2.53;;;;;;;-142.75;100.00;76704.16;5098879;28;20019;-67
2022/11/07 04:03:35;;;;;;;11.77;2.00;;;;;;;-142.75;100.00;76704.16;5099133;28;20129;-68
2022/11/07 04:06:00;;;;;;;15.93;1.67;;;;;;;-142.75;100.00;76706.13;5098418;28;20023;-69
2022/11/07 04:08:25;;;;;;;;;;;;;;;-142.75;100.00;76708.09;5095726;28;20031;-67
2022/11/07 04:10:51;;;;;;;15.52;2.20;;;;;;;-142.75;100.00;76725.81;5099323;28;20285;-68
2022/11/07 04:18:34;;;;;;;10.18;1.75;;;;;;;-142.75;100.00;76708.09;5098300;28;20150;-67
2022/11/07 04:21:00;;;;;;;12.20;1.70;;;;;;;-142.75;100.00;76714.00;5098347;28;20009;-66
2022/11/07 04:23:25;;;;;;;10.10;1.85;;;;;;;-142.75;100.00;76721.88;5098911;28;20084;-67
2022/11/07 04:28:34;;;;;;;10.30;2.13;;;;;;;-142.75;100.00;76710.06;5097416;28;20397;-68
2022/11/07 04:30:59;;;;;;;11.10;1.77;;;;;;;-142.75;100.00;76706.13;5097932;28;20051;-69
2022/11/07 04:33:24;;;;;;;9.07;1.92;;;;;;;-142.75;100.00;76700.22;5098682;28;20031;-66
2022/11/07 04:35:50;;;;;;;;;;;;;;;-142.75;100.00;76696.28;5098807;28;20102;-68
2022/11/07 04:38:15;;;;;;;19.75;2.00;;;;;;;-142.75;100.00;76702.19;5097403;28;19961;-68
2022/11/07 04:40:40;;;;;;;12.55;1.88;;;;;;;-142.75;100.00;76700.22;5098515;28;20476;-68
2022/11/07 04:43:07;;;;;;;7.60;1.67;;;;;;;-142.75;100.00;76696.28;5079860;28;20028;-68
2022/11/07 04:45:37;;;;;;;11.60;1.92;;;;;;;-142.75;100.00;76700.22;5098447;28;20046;-69
2022/11/07 04:48:02;;;;;;;15.27;1.92;;;;;;;-142.75;100.00;76704.16;5097027;28;20122;-68
2022/11/07 04:50:28;;;;;;;13.70;2.20;;;;;;;-142.75;100.00;76702.19;5095396;28;20034;-68
2022/11/07 04:52:54;;;;;;;11.25;1.92;;;;;;;-142.75;100.00;76696.28;5097983;28;20028;-67
2022/11/07 04:55:25;;;;;;;11.50;1.38;;;;;;;-142.75;100.00;76696.28;5097801;28;20028;-68
2022/11/07 04:57:51;;;;;;;14.48;2.75;;;;;;;-142.75;100.00;76696.28;5096937;28;20028;-68
2022/11/07 05:00:18;;;;;;;10.73;2.25;;;;;;;-142.75;100.00;76704.16;5097638;28;20273;-68
2022/11/07 05:02:44;;;;;;;9.23;1.35;;;;;;;-142.75;100.00;76704.16;5097086;28;20036;-67
2022/11/07 05:05:10;;;;;;;15.52;3.00;;;;;;;-142.75;100.00;76702.19;5097158;28;20038;-68
2022/11/07 05:07:35;;;;;;;4.68;1.35;;;;;;;-142.75;100.00;76702.19;5096322;28;20023;-65
2022/11/07 05:10:01;;;;;;;11.98;1.77;;;;;;;-142.75;100.00;76706.13;5096577;28;20088;-68
2022/11/07 05:12:26;;;;;;;13.02;2.08;;;;;;;-142.75;100.00;76714.00;5098038;28;20106;-68
2022/11/07 05:14:51;;;;;;;10.80;2.35;;;;;;;-142.75;100.00;76712.03;5097002;28;20517;-67
2022/11/07 05:17:17;;;;;;;15.88;1.98;;;;;;;-142.75;100.00;76714.00;5096167;28;20130;-69
2022/11/07 05:19:42;;;;;;;14.52;2.25;;;;;;;-142.75;100.00;76723.84;5097311;28;20019;-67
2022/11/07 05:24:53;;;;;;;14.77;1.98;;;;;;;-142.75;100.00;76723.84;5099906;28;20418;-66
2022/11/07 05:27:20;;;;;;;13.80;2.08;;;;;;;-142.75;100.00;76719.91;5098672;28;20028;-67
2022/11/07 05:29:45;;;;;;;18.15;1.83;;;;;;;-142.75;100.00;76743.53;5099387;28;20027;-68
2022/11/07 05:32:12;;;;;;;12.95;2.78;;;;;;;-142.75;100.00;76721.88;5099702;28;20787;-67
2022/11/07 05:34:37;;;;;;;;;;;;;;;-142.75;100.00;76731.72;5100016;28;20024;-68
2022/11/07 05:37:06;;;;;;;11.68;2.15;;;;;;;-142.75;100.00;76719.91;5098219;28;19918;-67
2022/11/07 05:39:31;;;;;;;13.05;1.95;;;;;;;-142.75;100.00;76717.94;5099426;28;20019;-67
2022/11/07 05:41:56;;;;;;;14.70;2.35;;;;;;;-142.75;100.00;76723.84;5098841;28;20031;-68
2022/11/07 05:44:21;;;;;;;10.63;1.65;;;;;;;-142.75;100.00;76727.78;5099071;28;20045;-65
2022/11/07 05:46:47;;;;;;;15.55;2.30;;;;;;;-142.75;100.00;76727.78;5098383;28;20082;-69
2022/11/07 05:49:12;;;;;;;18.98;1.90;;;;;;;-142.75;100.00;76723.84;5098846;28;20030;-68
2022/11/07 05:51:37;;;;;;;13.38;1.85;;;;;;;-142.75;100.00;76725.81;5099221;28;20023;-67
2022/11/07 05:54:03;;;;;;;9.85;1.45;;;;;;;-142.75;100.00;76727.78;5098713;28;20032;-67
2022/11/07 05:56:28;;;;;;;12.68;1.98;;;;;;;-142.75;100.00;76719.91;5099355;28;20469;-67
2022/11/07 05:58:53;;;;;;;10.90;2.17;;;;;;;-142.75;100.00;76714.00;5098674;28;20467;-67
2022/11/07 06:01:18;;;;;;;;;;;;;;;-142.75;100.00;76719.91;5099399;28;20015;-68
2022/11/07 06:03:44;;;;;;;15.52;2.10;;;;;;;-142.75;100.00;76715.97;5099084;28;20357;-68
2022/11/07 06:06:09;;;;;;;;;;;;;;;-142.75;100.00;76706.13;5099060;28;20054;-67
2022/11/07 06:08:35;;;;;;;13.10;2.03;;;;;;;-142.75;100.00;76706.13;5112438;22;19959;-63
2022/11/07 06:11:04;;;;;;;8.30;2.33;;;;;;;-142.75;100.00;76696.28;5074574;28;20414;-63
2022/11/07 06:13:29;;;;;;;13.10;2.03;;;;;;;-142.75;100.00;76700.22;5093277;28;20114;-63
2022/11/07 06:15:56;;;;;;;12.88;2.83;;;;;;;-142.75;100.00;76712.03;5096923;28;20035;-66
2022/11/07 06:18:21;;;;;;;14.48;1.95;;;;;;;-142.75;100.00;76704.16;5093876;28;20087;-63
2022/11/07 06:20:47;;;;;;;14.02;2.45;;;;;;;-142.75;100.00;76700.22;5082384;28;20027;-67
2022/11/07 06:23:12;;;;;;;13.40;2.13;;;;;;;-142.75;100.00;76692.34;5079557;28;20091;-64
2022/11/07 06:25:38;;;;;;;12.55;1.83;;;;;;;-142.75;100.00;76704.16;5078765;28;20031;-64
2022/11/07 06:28:07;;;;;;;15.43;2.75;;;;;;;-142.75;100.00;76696.28;5095728;28;20612;-64
2022/11/07 06:30:33;;;;;;;10.40;1.63;;;;;;;-142.75;100.00;76700.22;5093887;28;20198;-63
2022/11/07 06:33:00;;;;;;;15.10;2.03;;;;;;;-142.75;100.00;76698.25;5077336;28;20186;-64
2022/11/07 06:35:26;;;;;;;15.70;2.33;;;;;;;-142.75;100.00;76714.00;5080728;28;20027;-66
2022/11/07 06:37:51;;;;;;;11.27;1.63;;;;;;;-142.75;100.00;76706.13;5093514;28;20027;-63
2022/11/07 06:40:17;;;;;;;16.35;2.35;;;;;;;-142.75;100.00;76708.09;5079990;28;20046;-65
2022/11/07 06:42:42;;;;;;;9.30;1.88;;;;;;;-142.75;100.00;76715.97;5077141;28;20066;-63
2022/11/07 06:45:07;;;;;;;;;;;;;;;-142.75;100.00;76710.06;5078811;28;20378;-62
2022/11/07 06:47:33;;;;;;;16.33;2.17;;;;;;;-142.75;100.00;76706.13;5077205;28;20044;-63
2022/11/07 06:49:58;;;;;;;11.15;2.58;;;;;;;-142.75;100.00;76706.13;5079236;28;20020;-65
2022/11/07 06:52:23;;;;;;;12.80;2.30;;;;;;;-142.75;100.00;76700.22;5076327;28;20178;-63
2022/11/07 06:54:48;;;;;;;;;;;;;;;-142.75;100.00;76706.13;5095641;28;20413;-65
2022/11/07 06:57:14;;;;;;;14.43;2.45;;;;;;;-142.75;100.00;76719.91;5095396;28;20403;-61
2022/11/07 06:59:39;;;;;;;15.23;2.00;;;;;;;-142.75;100.00;76715.97;5078635;28;20504;-63
2022/11/07 07:02:04;;;;;;;13.15;2.13;;;;;;;-142.75;100.00;76712.03;5078196;28;20022;-65
2022/11/07 07:04:30;;;;;;;11.05;2.13;;;;;;;-142.75;100.00;76710.06;5078885;28;20377;-64
2022/11/07 07:06:55;;;;;;;13.30;2.08;;;;;;;-142.75;100.00;76715.97;5093395;27;20027;-65
2022/11/07 07:09:20;;;;;;;11.48;1.98;;;;;;;-142.75;100.00;76715.97;5076959;28;20035;-64
2022/11/07 07:11:47;;;;;;;10.88;2.17;;;;;;;-142.75;100.00;76715.97;5077793;28;20040;-62
2022/11/07 07:14:12;;;;;;;;;;;;;;;-142.75;100.00;76704.16;5077817;28;20020;-64
2022/11/07 07:16:37;;;;;;;8.65;2.20;;;;;;;-142.75;100.00;76719.91;5079308;28;20278;-64
2022/11/07 07:19:02;;;;;;;;;;;;;;;-142.75;100.00;76717.94;5078821;28;20130;-62
2022/11/07 07:21:28;;;;;;;10.90;1.92;;;;;;;-142.75;100.00;76712.03;5077522;28;19916;-63
2022/11/07 07:23:54;;;;;;;13.45;2.97;;;;;;;-142.75;100.00;76721.88;5078369;28;20445;-63
2022/11/07 07:26:19;;;;;;;12.23;1.65;;;;;;;-142.75;100.00;76719.91;5094830;28;20989;-64
2022/11/07 07:28:44;;;;;;;8.65;1.98;;;;;;;-142.75;100.00;76729.75;5075672;28;20485;-64
2022/11/07 07:31:12;;;;;;;13.50;2.42;;;;;;;-142.75;100.00;76717.94;5092373;28;20051;-63
2022/11/07 07:33:38;;;;;;;12.00;1.80;;;;;;;-142.75;100.00;76717.94;5078385;28;20086;-64
2022/11/07 07:36:04;;;;;;;17.20;2.67;;;;;;;-142.75;100.00;76714.00;5093454;28;20114;-64
2022/11/07 07:38:30;;;;;;;14.02;1.77;;;;;;;-142.75;100.00;76712.03;5094945;28;20410;-63
2022/11/07 07:40:57;;;;;;;14.73;2.00;;;;;;;-142.75;100.00;76717.94;5095411;28;20031;-64
2022/11/07 07:43:22;;;;;;;11.77;1.73;;;;;;;-142.75;100.00;76712.03;5077749;28;20210;-63
2022/11/07 07:45:48;;;;;;;7.88;1.83;;;;;;;-142.75;100.00;76700.22;5092921;28;20020;-62
2022/11/07 07:48:13;;;;;;;15.10;2.10;;;;;;;-142.75;100.00;76696.28;5073659;28;20758;-62
2022/11/07 07:50:38;;;;;;;8.07;1.98;;;;;;;-142.75;100.00;76696.28;5095033;28;20431;-63
2022/11/07 07:53:04;;;;;;;16.02;6.28;;;;;;;-142.75;100.00;76700.22;5075850;28;20298;-63
2022/11/07 07:55:29;;;;;;;14.55;3.45;;;;;;;-142.75;100.00;76682.50;5092004;28;20028;-60
2022/11/07 07:57:54;;;;;;;21.63;2.47;;;;;;;-142.75;100.00;76670.69;5076386;28;20105;-64
2022/11/07 08:00:20;;;;;;;;;;;;;;;-142.75;100.00;76670.69;5093338;28;20085;-64
2022/11/07 08:02:45;;;;;;;8.55;1.98;;;;;;;-142.75;100.00;76680.53;5077710;28;20444;-64
2022/11/07 08:05:11;;;;;;;;;;;;;;;-142.75;100.00;76676.59;5096694;28;20058;-63
2022/11/07 08:07:47;;;;;;;16.23;2.00;;;;;;;-142.75;100.00;76670.69;5076975;28;20309;-63
2022/11/07 08:10:13;;;;;;;10.82;1.77;;;;;;;-142.75;100.00;76666.75;5090184;28;20529;-65
2022/11/07 08:12:49;;;;;;;;;;;;;;;-142.75;100.00;76660.84;5077234;28;20028;-63
2022/11/07 08:15:16;;;;;;;19.65;2.25;;;;;;;-142.75;100.00;76662.81;5076085;28;19920;-64
2022/11/07 08:17:42;;;;;;;11.23;1.65;;;;;;;-142.75;100.00;76672.66;5076794;28;20172;-62
2022/11/07 08:20:09;;;;;;;9.00;1.95;;;;;;;-142.75;100.00;76668.72;5076294;28;20126;-64
2022/11/07 08:22:38;;;;;;;10.38;1.50;;;;;;;-142.75;100.00;76680.53;5090641;28;20039;-64
2022/11/07 08:25:08;;;;;;;8.50;1.60;;;;;;;-142.75;100.00;76688.41;5093852;28;20045;-63
2022/11/07 08:27:34;;;;;;;13.23;2.00;;;;;;;-142.75;100.00;76686.44;5094157;28;20073;-64
2022/11/07 08:29:59;;;;;;;6.43;1.50;;;;;;;-142.75;100.00;76686.44;5073551;28;20282;-63
2022/11/07 08:32:27;;;;;;;7.20;1.73;;;;;;;-142.75;100.00;76690.38;5074504;28;20398;-63
2022/11/07 08:34:52;;;;;;;8.63;1.60;;;;;;;-142.75;100.00;76692.34;5090456;28;20028;-66
2022/11/07 08:37:18;;;;;;;9.75;1.98;;;;;;;-142.75;100.00;76688.41;5092238;28;20031;-63
2022/11/07 08:39:43;;;;;;;;;;;;;;;-142.75;100.00;76684.47;5074046;28;20591;-63
2022/11/07 08:42:08;;;;;;;12.45;1.65;;;;;;;-142.75;100.00;76676.59;5091394;28;19963;-65
2022/11/07 08:44:35;;;;;;;;;;;;;;;-142.75;100.00;76680.53;5091766;28;20485;-64
2022/11/07 08:47:01;;;;;;;7.70;1.45;;;;;;;-142.75;100.00;76678.56;5072676;28;19980;-64
2022/11/07 08:49:26;;;;;;;8.68;1.40;;;;;;;-142.75;100.00;76678.56;5093214;28;20293;-61
2022/11/07 08:51:52;;;;;;;7.38;1.60;;;;;;;-142.75;100.00;76680.53;5094767;27;20478;-62
2022/11/07 08:54:17;;;;;;;;;;;;;;;-142.75;100.00;76688.41;5075182;28;20118;-64
2022/11/07 08:56:42;;;;;;;14.82;1.75;;;;;;;-142.75;100.00;76688.41;5073011;28;20460;-64
2022/11/07 08:59:09;;;;;;;13.30;2.08;;;;;;;-142.75;100.00;76686.44;5092442;28;20531;-64
2022/11/07 09:01:35;;;;;;;7.35;1.17;;;;;;;-142.75;100.00;76692.34;5099105;28;20092;-62
2022/11/07 09:04:01;;;;;;;9.82;1.60;;;;;;;-142.75;100.00;76682.50;5094588;28;20031;-65
2022/11/07 09:06:26;;;;;;;11.45;1.80;;;;;;;-142.75;100.00;76694.31;5074830;28;20474;-62
2022/11/07 09:08:52;;;;;;;8.65;2.17;;;;;;;-142.75;100.00;76682.50;5092292;28;20035;-63
2022/11/07 09:11:17;;;;;;;;;;;;;;;-142.75;100.00;76686.44;5073146;28;20032;-63
2022/11/07 09:13:45;;;;;;;6.07;1.40;;;;;;;-142.75;100.00;76680.53;5091460;28;19912;-62
2022/11/07 09:16:11;;;;;;;12.43;2.30;;;;;;;-142.75;100.00;76672.66;5090701;28;20019;-66
2022/11/07 09:18:37;;;;;;;13.40;1.98;;;;;;;-142.75;100.00;76684.47;5090269;28;20026;-65
2022/11/07 09:21:02;;;;;;;9.73;1.85;;;;;;;-142.75;100.00;76682.50;5073768;28;20345;-65
2022/11/07 09:23:28;;;;;;;11.00;1.73;;;;;;;-142.75;100.00;76704.16;5092941;28;20049;-63
2022/11/07 09:25:53;;;;;;;;;;;;;;;-142.75;100.00;76696.28;5092191;28;20084;-65
2022/11/07 09:28:18;;;;;;;12.82;1.92;;;;;;;-142.75;100.00;76700.22;5072652;28;20044;-65
2022/11/07 09:30:44;;;;;;;13.45;1.95;;;;;;;-142.75;100.00;76704.16;5072515;28;20028;-65
2022/11/07 09:33:09;;;;;;;9.90;1.70;;;;;;;-142.75;100.00;76698.25;5073542;28;20550;-64
2022/11/07 09:35:34;;;;;;;12.00;1.80;;;;;;;-142.75;100.00;76715.97;5074768;28;20031;-65
2022/11/07 09:38:00;;;;;;;12.80;2.40;;;;;;;-142.75;100.00;76700.22;5089313;28;20085;-64
2022/11/07 09:40:31;;;;;;;15.45;2.67;;;;;;;-142.75;100.00;76668.72;5098242;28;20840;-64
2022/11/07 09:43:41;;;;;;;11.63;1.83;;;;;;;-142.75;100.00;76639.19;5094843;28;20613;-63
2022/11/07 09:46:18;;;;;;;12.10;2.33;;;;;;;-142.75;100.00;76643.13;5087750;28;20142;-61
2022/11/07 09:48:54;;;;;;;6.50;1.50;;;;;;;-142.75;100.00;76633.28;5078634;28;20426;-63
2022/11/07 09:51:44;;;;;;;8.35;2.67;;;;;;;-142.75;100.00;76633.28;5076118;28;20050;-64
2022/11/07 09:54:16;;;;;;;12.18;1.80;;;;;;;-142.75;100.00;76641.16;5078411;28;20023;-65
2022/11/07 09:56:42;;;;;;;13.45;2.22;;;;;;;-142.75;100.00;76651.00;5081229;28;20066;-63
2022/11/07 09:59:18;;;;;;;6.63;1.42;;;;;;;-142.75;100.00;76652.97;5079924;28;20027;-65
2022/11/07 10:01:43;;;;;;;8.60;1.90;;;;;;;-142.75;100.00;76643.13;5095212;28;20024;-63
2022/11/07 10:04:15;;;;;;;16.88;2.45;;;;;;;-142.75;100.00;76613.59;5099060;27;20505;-64
2022/11/07 10:06:48;;;;;;;8.85;1.67;;;;;;;-142.75;100.00;76597.84;5096040;28;20054;-64
2022/11/07 10:09:35;;;;;;;9.88;1.52;;;;;;;-142.75;100.00;76584.06;5077577;28;20023;-65
2022/11/07 10:12:29;;;;;;;;;;;;;;;-142.75;100.00;76593.91;5095072;28;20498;-62
2022/11/07 10:15:19;;;;;;;13.60;1.92;;;;;;;-142.75;100.00;76582.09;5064563;28;19916;-62
2022/11/07 10:18:01;;;;;;;10.82;1.50;;;;;;;-142.75;100.00;76589.97;5097016;28;20031;-62
2022/11/07 10:20:45;;;;;;;8.35;1.48;;;;;;;-142.75;100.00;76609.66;5095962;28;20019;-61
2022/11/07 10:23:36;;;;;;;11.93;2.22;;;;;;;-142.75;100.00;76601.78;5076051;28;20023;-62
2022/11/07 10:26:14;;;;;;;8.52;2.28;;;;;;;-142.75;100.00;76629.34;5078322;27;20015;-62
2022/11/07 10:29:06;;;;;;;11.45;1.77;;;;;;;-142.75;100.00;76629.34;5076773;28;20043;-62
2022/11/07 10:31:37;;;;;;;17.45;2.33;;;;;;;-142.75;100.00;76625.41;5077253;28;20598;-60
2022/11/07 10:34:14;;;;;;;8.30;1.60;;;;;;;-142.75;100.00;76629.34;5079543;28;20547;-64
2022/11/07 10:36:39;;;;;;;17.55;1.73;;;;;;;-142.75;100.00;76631.31;5076144;28;20047;-63
2022/11/07 10:39:14;;;;;;;16.13;2.25;;;;;;;-142.75;100.00;76639.19;5075790;28;20023;-62
2022/11/07 10:41:43;;;;;;;8.73;1.73;;;;;;;-142.75;100.00;76641.16;5094766;28;20027;-62
2022/11/07 10:44:26;;;;;;;9.15;1.77;;;;;;;-142.75;100.00;76645.09;5096282;28;20042;-63
2022/11/07 10:46:51;;;;;;;11.82;2.15;;;;;;;-142.75;100.00;76637.22;5094290;28;20070;-64
2022/11/07 10:49:25;;;;;;;11.35;1.50;;;;;;;-142.75;100.00;76637.22;5077861;28;20610;-62
2022/11/07 10:51:51;;;;;;;11.57;2.05;;;;;;;-142.75;100.00;76635.25;5077428;28;20118;-63
2022/11/07 10:54:30;;;;;;;5.88;1.88;;;;;;;-142.75;100.00;76641.16;5077057;28;20027;-61
2022/11/07 10:57:07;;;;;;;13.73;2.78;;;;;;;-142.75;100.00;76637.22;5094447;28;20063;-63
2022/11/07 10:59:35;;;;;;;7.13;1.88;;;;;;;-142.75;100.00;76637.22;5074484;28;20062;-61
2022/11/07 11:02:01;;;;;;;14.02;1.67;;;;;;;-142.75;100.00;76621.47;5075904;28;20039;-64
2022/11/07 11:04:31;;;;;;;10.82;2.03;;;;;;;-142.75;100.00;76619.50;5075547;28;20162;-62
2022/11/07 11:06:59;;;;;;;15.20;1.90;;;;;;;-142.75;100.00;76627.38;5092551;28;20131;-61
2022/11/07 11:09:33;;;;;;;9.20;1.60;;;;;;;-142.75;100.00;76609.66;5079167;28;20062;-62
2022/11/07 11:12:10;;;;;;;16.75;2.22;;;;;;;-142.75;100.00;76601.78;5076492;28;20444;-64
2022/11/07 11:14:36;;;;;;;15.57;2.00;;;;;;;-142.75;100.00;76603.75;5076732;28;20058;-62
2022/11/07 11:17:02;;;;;;;10.07;1.77;;;;;;;-142.75;100.00;76601.78;5074968;28;20689;-63
2022/11/07 11:19:38;;;;;;;17.80;1.73;;;;;;;-142.75;100.00;76593.91;5092342;28;20533;-61
2022/11/07 11:22:13;;;;;;;7.35;1.85;;;;;;;-142.75;100.00;76580.13;5091616;28;20610;-63
2022/11/07 11:24:39;;;;;;;14.35;1.92;;;;;;;-142.75;100.00;76576.19;5074592;28;20034;-63
2022/11/07 11:27:21;;;;;;;8.88;1.65;;;;;;;-142.75;100.00;76580.13;5073341;28;20023;-65